createdAt,value
2022-12-19T00:01:23.757Z,102154.41
2022-12-19T00:03:56.354Z,102148.97
2022-12-19T00:06:26.123Z,102113.72
2022-12-19T00:08:57.030Z,102133.19
2022-12-19T00:11:28.107Z,102147.19
2022-12-19T00:13:56.739Z,102038.44
2022-12-19T00:16:28.322Z,102119.16
2022-12-19T00:19:01.583Z,102079.34
2022-12-19T00:21:35.083Z,102088.28
2022-12-19T00:24:06.616Z,101986.84
2022-12-19T00:26:51.148Z,102077.66
2022-12-19T00:29:19.656Z,102053.09
2022-12-19T00:31:47.933Z,102080.81
2022-12-19T00:34:16.995Z,101955.19
2022-12-19T00:36:45.287Z,102068.59
2022-12-19T00:39:13.667Z,102044.06
2022-12-19T00:41:42.898Z,102048.25
2022-12-19T00:44:15.574Z,102050.50
2022-12-19T00:46:51.511Z,101989.69
2022-12-19T00:49:21.926Z,102018.94
2022-12-19T00:51:50.372Z,102019.59
2022-12-19T00:54:18.864Z,102014.13
2022-12-19T00:56:47.277Z,102003.53
2022-12-19T00:59:18.117Z,102007.91
2022-12-19T01:01:54.911Z,102001.66
2022-12-19T01:04:32.648Z,102011.78
2022-12-19T01:07:05.817Z,102018.34
2022-12-19T01:09:36.862Z,102041.91
2022-12-19T01:12:25.185Z,101931.16
2022-12-19T01:15:04.622Z,101984.38
2022-12-19T01:17:43.797Z,101988.63
2022-12-19T01:20:15.345Z,102018.41
2022-12-19T01:22:43.848Z,102050.16
2022-12-19T01:25:15.954Z,101948.94
2022-12-19T01:27:44.390Z,102033.47
2022-12-19T01:30:14.870Z,101993.25
2022-12-19T01:32:43.738Z,102021.66
2022-12-19T01:35:21.710Z,101959.13
2022-12-19T01:37:51.492Z,102010.03
2022-12-19T01:40:21.632Z,102014.50
2022-12-19T01:42:50.989Z,102011.91
2022-12-19T01:45:34.425Z,102009.72
2022-12-19T01:48:17.179Z,101998.38
2022-12-19T01:51:00.981Z,101918.06
2022-12-19T01:53:48.692Z,101767.94
2022-12-19T01:56:23.604Z,101943.25
2022-12-19T01:59:05.126Z,101920.88
2022-12-19T02:01:51.011Z,101980.91
2022-12-19T02:04:25.987Z,101931.84
2022-12-19T02:06:58.529Z,101912.09
2022-12-19T02:09:28.735Z,101947.50
2022-12-19T02:11:59.920Z,101943.38
2022-12-19T02:14:29.720Z,101907.69
2022-12-19T02:17:14.473Z,101886.28
2022-12-19T02:20:43.997Z,101924.53
2022-12-19T02:23:52.559Z,101903.22
2022-12-19T02:26:52.952Z,101936.78
2022-12-19T02:30:01.423Z,101923.22
2022-12-19T02:32:38.875Z,101931.63
2022-12-19T02:35:18.646Z,101931.44
2022-12-19T02:37:57.766Z,101893.28
2022-12-19T02:40:36.995Z,101921.09
2022-12-19T02:43:11.012Z,101929.38
2022-12-19T02:45:43.306Z,101931.06
2022-12-19T02:48:18.882Z,101928.31
2022-12-19T02:50:50.417Z,101928.16
2022-12-19T02:53:23.661Z,101845.34
2022-12-19T02:56:28.825Z,101894.75
2022-12-19T02:59:27.080Z,101939.50
2022-12-19T03:02:06.126Z,101936.44
2022-12-19T03:04:50.693Z,101940.13
2022-12-19T03:07:31.824Z,101901.34
2022-12-19T03:10:16.707Z,101929.63
2022-12-19T03:12:54.593Z,101921.84
2022-12-19T03:15:25.573Z,101928.19
2022-12-19T03:18:00.527Z,101891.97
2022-12-19T03:20:44.678Z,101918.19
2022-12-19T03:23:13.721Z,101895.66
2022-12-19T03:25:46.721Z,101910.31
2022-12-19T03:28:22.282Z,101909.78
2022-12-19T03:30:51.573Z,101786.09
2022-12-19T03:33:23.501Z,101925.38
2022-12-19T03:35:56.386Z,101931.31
2022-12-19T03:38:26.442Z,101939.22
2022-12-19T03:40:57.979Z,101938.50
2022-12-19T03:43:29.238Z,101935.81
2022-12-19T03:46:03.304Z,101893.28
2022-12-19T03:48:40.697Z,101922.25
2022-12-19T03:51:23.212Z,101910.81
2022-12-19T03:54:03.267Z,101919.66
2022-12-19T03:56:42.424Z,101909.03
2022-12-19T03:59:17.521Z,101915.03
2022-12-19T04:01:47.874Z,101902.41
2022-12-19T04:04:17.473Z,101921.66
2022-12-19T04:06:49.813Z,101921.47
2022-12-19T04:09:22.602Z,101915.34
2022-12-19T04:11:56.255Z,101911.78
2022-12-19T04:14:31.497Z,101910.97
2022-12-19T04:17:12.070Z,101921.47
2022-12-19T04:19:49.056Z,101923.13
2022-12-19T04:22:33.403Z,101916.06
2022-12-19T04:25:09.712Z,101920.44
2022-12-19T04:27:47.843Z,101884.16
2022-12-19T04:30:19.840Z,101907.03
2022-12-19T04:32:49.571Z,101842.16
2022-12-19T04:35:18.372Z,101895.78
2022-12-19T04:37:48.215Z,101893.91
2022-12-19T04:40:16.977Z,101890.59
2022-12-19T04:42:45.268Z,101839.19
2022-12-19T04:45:13.591Z,101807.34
2022-12-19T04:47:42.071Z,101876.53
2022-12-19T04:50:11.485Z,101849.19
2022-12-19T04:52:39.833Z,101862.78
2022-12-19T04:55:11.141Z,101734.59
2022-12-19T04:57:39.756Z,101872.00
2022-12-19T05:00:09.868Z,101873.16
2022-12-19T05:02:39.966Z,101861.00
2022-12-19T05:05:10.394Z,101878.16
2022-12-19T05:07:38.840Z,101885.22
2022-12-19T05:10:10.179Z,101882.03
2022-12-19T05:12:38.949Z,101876.22
2022-12-19T05:15:08.918Z,101874.72
2022-12-19T05:17:37.788Z,101849.16
2022-12-19T05:20:08.744Z,101816.94
2022-12-19T05:22:37.031Z,101827.34
2022-12-19T05:25:06.417Z,101854.03
2022-12-19T05:27:37.242Z,101826.63
2022-12-19T05:30:07.136Z,101839.25
2022-12-19T05:32:35.490Z,101867.56
2022-12-19T05:35:03.751Z,101853.88
2022-12-19T05:37:32.070Z,101861.72
2022-12-19T05:40:00.583Z,101752.41
2022-12-19T05:42:28.985Z,101863.56
2022-12-19T05:44:58.654Z,101832.75
2022-12-19T05:47:27.201Z,101856.44
2022-12-19T05:49:55.428Z,101858.81
2022-12-19T05:52:24.764Z,101853.31
2022-12-19T05:54:53.154Z,101806.56
2022-12-19T05:57:21.610Z,101854.47
2022-12-19T05:59:49.904Z,101856.09
2022-12-19T06:02:19.814Z,101861.69
2022-12-19T06:04:48.437Z,101841.72
2022-12-19T06:07:20.874Z,101859.13
2022-12-19T06:09:49.780Z,101842.28
2022-12-19T06:12:18.483Z,101844.16
2022-12-19T06:14:47.242Z,101835.16
2022-12-19T06:17:15.627Z,101833.03
2022-12-19T06:19:46.103Z,101830.91
2022-12-19T06:22:14.464Z,101831.88
2022-12-19T06:24:42.939Z,101810.94
2022-12-19T06:27:11.307Z,101840.38
2022-12-19T06:29:39.567Z,101809.31
2022-12-19T06:32:08.676Z,101766.16
2022-12-19T06:35:03.225Z,101815.81
2022-12-19T06:37:27.114Z,101840.09
2022-12-19T06:39:55.475Z,101833.94
2022-12-19T06:42:22.926Z,101842.59
2022-12-19T06:44:52.361Z,101845.28
2022-12-19T06:47:22.186Z,101785.19
2022-12-19T06:49:50.606Z,101840.31
2022-12-19T06:52:19.402Z,101833.16
2022-12-19T06:54:49.062Z,101834.22
2022-12-19T06:57:17.846Z,101842.91
2022-12-19T06:59:46.144Z,101835.22
2022-12-19T07:02:29.646Z,101823.34
2022-12-19T07:05:04.461Z,101784.06
2022-12-19T07:07:33.655Z,101823.81
2022-12-19T07:10:04.531Z,101785.66
2022-12-19T07:12:33.039Z,101705.56
2022-12-19T07:15:01.334Z,101815.31
2022-12-19T07:17:31.097Z,101793.44
2022-12-19T07:20:00.265Z,101821.34
2022-12-19T07:22:34.909Z,101763.09
2022-12-19T07:25:07.183Z,101715.72
2022-12-19T07:27:37.865Z,101705.44
2022-12-19T07:30:08.972Z,101807.44
2022-12-19T07:32:37.330Z,101782.69
2022-12-19T07:35:07.029Z,101795.28
2022-12-19T07:37:35.614Z,101794.91
2022-12-19T07:40:06.540Z,101820.13
2022-12-19T07:42:35.248Z,101813.53
2022-12-19T07:45:03.573Z,101768.59
2022-12-19T07:47:32.015Z,101779.75
2022-12-19T07:50:01.477Z,101801.63
2022-12-19T07:52:30.127Z,101781.84
2022-12-19T07:54:58.512Z,101802.63
2022-12-19T07:57:28.230Z,101800.75
2022-12-19T07:59:56.483Z,101744.56
2022-12-19T08:02:25.046Z,101765.47
2022-12-19T08:04:53.609Z,101752.94
2022-12-19T08:07:22.101Z,101795.84
2022-12-19T08:09:50.670Z,101787.56
2022-12-19T08:12:18.991Z,101802.84
2022-12-19T08:14:51.592Z,101780.84
2022-12-19T08:17:22.635Z,101815.72
2022-12-19T08:19:51.109Z,101821.47
2022-12-19T08:22:19.501Z,101817.41
2022-12-19T08:24:47.917Z,101815.97
2022-12-19T08:27:17.832Z,101820.66
2022-12-19T08:29:46.235Z,101827.81
2022-12-19T08:32:21.292Z,101784.75
2022-12-19T08:34:50.633Z,101813.50
2022-12-19T08:37:19.269Z,101811.06
2022-12-19T08:39:47.622Z,101807.78
2022-12-19T08:42:15.871Z,101796.88
2022-12-19T08:44:44.821Z,101786.44
2022-12-19T08:47:13.104Z,101711.97
2022-12-19T08:49:42.794Z,101651.19
2022-12-19T08:52:11.316Z,101737.69
2022-12-19T08:54:40.211Z,101774.34
2022-12-19T08:57:08.524Z,101789.28
2022-12-19T08:59:36.825Z,101781.28
2022-12-19T09:02:06.600Z,101741.69
2022-12-19T09:06:02.149Z,101759.44
2022-12-19T09:07:24.791Z,101764.84
2022-12-19T09:09:53.548Z,101773.50
2022-12-19T09:12:21.827Z,101738.31
2022-12-19T09:14:51.639Z,101760.63
2022-12-19T09:17:20.794Z,101701.19
2022-12-19T09:19:49.133Z,101732.34
2022-12-19T09:22:17.728Z,101769.44
2022-12-19T09:24:47.753Z,101768.59
2022-12-19T09:27:16.162Z,101721.91
2022-12-19T09:29:44.892Z,101720.81
2022-12-19T09:32:13.394Z,101752.34
2022-12-19T09:34:41.775Z,101711.13
2022-12-19T09:37:16.983Z,101750.47
2022-12-19T09:39:48.592Z,101663.78
2022-12-19T09:42:44.719Z,101689.09
2022-12-19T09:45:40.364Z,101741.19
2022-12-19T09:48:24.233Z,101723.63
2022-12-19T09:51:10.249Z,101673.25
2022-12-19T09:53:57.211Z,101671.91
2022-12-19T09:56:34.039Z,101685.63
2022-12-19T09:59:26.618Z,101543.91
2022-12-19T10:02:15.725Z,101693.53
2022-12-19T10:05:10.204Z,101694.41
2022-12-19T10:08:07.201Z,101637.88
2022-12-19T10:12:46.511Z,101691.34
2022-12-19T10:13:54.280Z,101626.84
2022-12-19T10:16:56.489Z,101497.16
2022-12-19T10:19:49.953Z,101655.25
2022-12-19T10:22:29.465Z,101379.50
2022-12-19T10:25:17.741Z,101543.41
2022-12-19T10:27:59.446Z,101654.50
2022-12-19T10:30:39.006Z,101396.69
2022-12-19T10:33:21.111Z,101326.38
2022-12-19T10:36:02.200Z,101544.91
2022-12-19T10:38:43.478Z,101348.66
2022-12-19T10:41:23.407Z,101554.72
2022-12-19T10:44:05.754Z,101649.78
2022-12-19T10:46:40.749Z,101651.56
2022-12-19T10:49:16.737Z,101657.25
2022-12-19T10:51:58.953Z,101590.38
2022-12-19T10:54:33.574Z,101641.22
2022-12-19T10:57:23.036Z,101645.63
2022-12-19T11:00:00.843Z,101607.91
2022-12-19T11:02:41.715Z,101526.88
2022-12-19T11:05:26.407Z,101628.84
2022-12-19T11:08:03.420Z,101569.28
2022-12-19T11:11:19.698Z,101604.59
2022-12-19T11:18:28.466Z,101600.16
2022-12-19T11:21:53.440Z,101481.91
2022-12-19T11:29:16.963Z,101429.06
2022-12-19T11:29:40.000Z,101563.59
2022-12-19T11:30:21.355Z,101604.22
2022-12-19T11:30:37.385Z,101592.31
2022-12-19T11:34:08.158Z,101525.16
2022-12-19T11:36:48.940Z,101517.00
2022-12-19T11:39:29.982Z,101570.81
2022-12-19T11:42:11.971Z,101460.34
2022-12-19T11:44:49.109Z,101577.84
2022-12-19T11:47:34.931Z,101275.16
2022-12-19T11:50:14.549Z,101487.91
2022-12-19T11:53:04.216Z,101509.19
2022-12-19T11:55:44.991Z,101456.38
2022-12-19T11:58:14.800Z,101361.72
2022-12-19T12:00:55.374Z,101528.75
2022-12-19T12:04:02.541Z,101548.28
2022-12-19T12:06:45.294Z,101537.88
2022-12-19T12:13:40.224Z,101400.00
2022-12-19T12:19:10.325Z,101539.66
2022-12-19T12:27:57.931Z,101537.22
2022-12-19T12:31:05.201Z,101527.78
2022-12-19T12:31:31.376Z,101375.69
2022-12-19T12:31:41.206Z,101520.84
2022-12-19T12:31:51.389Z,101508.22
2022-12-19T12:35:33.274Z,101498.38
2022-12-19T12:38:16.664Z,101374.53
2022-12-19T12:40:31.861Z,101505.09
2022-12-19T12:43:12.754Z,101528.75
2022-12-19T12:45:44.955Z,101517.19
2022-12-19T12:48:28.508Z,101532.16
2022-12-19T12:51:01.382Z,101314.91
2022-12-19T12:53:36.397Z,101513.88
2022-12-19T12:56:11.681Z,101518.06
2022-12-19T12:59:21.576Z,101501.28
2022-12-19T13:01:56.747Z,101474.72
2022-12-19T13:04:42.137Z,101461.38
2022-12-19T13:07:29.899Z,101453.44
2022-12-19T13:10:26.133Z,101428.06
2022-12-19T13:13:04.372Z,101449.16
2022-12-19T13:15:43.616Z,101438.69
2022-12-19T13:18:37.608Z,101408.38
2022-12-19T13:21:10.735Z,101454.91
2022-12-19T13:24:15.984Z,101460.81
2022-12-19T13:26:51.076Z,101450.22
2022-12-19T13:29:51.310Z,101455.97
2022-12-19T13:32:19.855Z,101433.53
2022-12-19T13:35:32.863Z,101255.19
2022-12-19T13:40:02.078Z,101437.88
2022-12-19T13:41:01.967Z,101428.47
2022-12-19T13:43:49.724Z,101427.53
2022-12-19T13:46:42.594Z,101329.50
2022-12-19T13:49:20.547Z,101411.75
2022-12-19T13:51:55.056Z,101410.16
2022-12-19T13:54:29.174Z,101391.44
2022-12-19T13:57:09.328Z,101302.47
2022-12-19T13:59:45.614Z,101407.34
2022-12-19T14:02:34.852Z,101407.22
2022-12-19T14:05:48.516Z,101410.63
2022-12-19T14:08:22.763Z,101396.47
2022-12-19T14:11:41.815Z,101360.00
2022-12-19T14:14:16.393Z,101290.28
2022-12-19T14:16:46.684Z,101414.63
2022-12-19T14:19:27.766Z,101404.06
2022-12-19T14:22:15.617Z,101411.91
2022-12-19T14:25:33.257Z,101374.44
2022-12-19T14:28:19.135Z,101375.31
2022-12-19T14:30:55.817Z,101349.19
2022-12-19T14:33:46.477Z,101316.41
2022-12-19T14:36:28.767Z,101370.44
2022-12-19T14:39:24.280Z,101238.91
2022-12-19T14:42:19.020Z,101313.06
2022-12-19T14:52:36.015Z,101308.84
2022-12-19T14:53:51.973Z,101383.97
2022-12-19T14:54:04.080Z,101380.44
2022-12-19T14:54:35.865Z,101291.13
2022-12-19T14:56:56.093Z,101309.72
2022-12-19T14:59:06.998Z,101372.41
2022-12-19T15:01:37.067Z,101374.19
2022-12-19T15:04:50.971Z,101276.94
2022-12-19T15:07:12.501Z,101370.59
2022-12-19T15:11:07.921Z,101383.69
2022-12-19T15:14:51.284Z,101378.59
2022-12-19T15:16:08.306Z,101366.44
2022-12-19T15:18:42.571Z,101373.38
2022-12-19T15:21:14.899Z,101355.63
2022-12-19T15:23:46.032Z,101327.59
2022-12-19T15:26:19.544Z,101355.94
2022-12-19T15:28:52.095Z,101325.81
2022-12-19T15:31:34.765Z,101363.97
2022-12-19T15:34:38.095Z,101362.19
2022-12-19T15:37:09.581Z,101358.63
2022-12-19T15:39:38.896Z,101343.63
2022-12-19T15:42:20.156Z,101365.75
2022-12-19T15:44:50.871Z,101354.19
2022-12-19T15:47:30.809Z,101185.69
2022-12-19T15:50:02.870Z,101262.63
2022-12-19T15:52:32.113Z,101373.88
2022-12-19T15:55:01.461Z,101363.50
2022-12-19T15:57:37.811Z,101375.69
2022-12-19T16:00:16.708Z,101350.97
2022-12-19T16:05:34.026Z,101292.50
2022-12-19T16:08:02.404Z,101366.91
2022-12-19T16:10:31.092Z,101357.25
2022-12-19T16:13:01.094Z,101365.88
2022-12-19T16:15:34.424Z,101360.75
2022-12-19T16:18:05.062Z,101356.47
2022-12-19T16:20:37.701Z,101345.88
2022-12-19T16:23:07.186Z,101314.94
2022-12-19T16:25:40.332Z,101326.81
2022-12-19T16:28:19.429Z,101339.03
2022-12-19T16:30:50.403Z,101307.22
2022-12-19T16:33:23.971Z,101260.44
2022-12-19T16:36:08.855Z,101335.59
2022-12-19T16:38:37.591Z,101333.84
2022-12-19T16:41:06.350Z,101286.13
2022-12-19T16:43:41.499Z,101319.72
2022-12-19T16:46:18.942Z,101252.66
2022-12-19T16:48:48.483Z,101341.81
2022-12-19T16:51:23.597Z,101272.75
2022-12-19T16:53:57.563Z,101314.19
2022-12-19T16:56:31.504Z,101351.38
2022-12-19T16:59:05.790Z,101326.63
2022-12-19T17:01:34.349Z,101282.00
2022-12-19T17:04:04.161Z,101226.34
2022-12-19T17:06:32.997Z,101339.25
2022-12-19T17:09:01.704Z,101334.91
2022-12-19T17:11:31.987Z,101309.28
2022-12-19T17:14:05.691Z,101335.16
2022-12-19T17:16:34.292Z,101328.00
2022-12-19T17:19:03.149Z,101332.50
2022-12-19T17:21:31.645Z,101163.19
2022-12-19T17:23:59.926Z,101322.09
2022-12-19T17:26:28.629Z,101237.25
2022-12-19T17:28:57.285Z,101325.63
2022-12-19T17:31:37.908Z,101307.06
2022-12-19T17:34:09.338Z,101268.16
2022-12-19T17:36:38.399Z,101162.34
2022-12-19T17:39:20.340Z,101324.78
2022-12-19T17:41:51.425Z,101321.09
2022-12-19T17:44:20.352Z,101297.47
2022-12-19T17:46:50.082Z,101328.38
2022-12-19T17:49:24.886Z,101327.56
2022-12-19T17:51:54.061Z,101313.59
2022-12-19T17:54:23.942Z,101310.84
2022-12-19T17:56:53.000Z,101312.66
2022-12-19T17:59:21.891Z,101317.88
2022-12-19T18:01:51.757Z,101219.91
2022-12-19T18:04:21.980Z,101185.44
2022-12-19T18:06:51.668Z,101323.91
2022-12-19T18:09:21.520Z,101300.03
2022-12-19T18:11:53.402Z,101325.59
2022-12-19T18:14:22.028Z,101316.84
2022-12-19T18:16:54.385Z,101294.03
2022-12-19T18:19:25.912Z,101314.44
2022-12-19T18:21:54.235Z,101298.56
2022-12-19T18:24:23.356Z,101313.66
2022-12-19T18:26:52.107Z,101319.81
2022-12-19T18:29:20.545Z,101285.28
2022-12-19T18:31:51.218Z,101308.44
2022-12-19T18:34:25.141Z,101301.56
2022-12-19T18:36:58.746Z,101286.63
2022-12-19T18:39:34.345Z,101308.59
2022-12-19T18:42:21.221Z,101227.59
2022-12-19T18:44:50.677Z,101313.13
2022-12-19T18:47:25.526Z,101179.13
2022-12-19T18:49:55.344Z,101066.91
2022-12-19T18:52:24.048Z,101316.50
2022-12-19T18:54:52.766Z,101237.38
2022-12-19T18:57:21.478Z,101313.25
2022-12-19T18:59:50.238Z,101305.25
2022-12-19T19:02:27.711Z,101300.97
2022-12-19T19:04:59.983Z,101221.56
2022-12-19T19:07:28.458Z,101174.94
2022-12-19T19:09:56.816Z,101225.34
2022-12-19T19:12:48.661Z,101243.84
2022-12-19T19:15:19.331Z,101287.13
2022-12-19T19:17:54.361Z,101283.59
2022-12-19T19:20:24.476Z,101133.38
2022-12-19T19:22:54.095Z,101270.22
2022-12-19T19:25:23.231Z,101205.84
2022-12-19T19:27:52.031Z,101277.38
2022-12-19T19:30:21.727Z,101263.19
2022-12-19T19:33:00.306Z,101161.75
2022-12-19T19:35:30.459Z,101281.84
2022-12-19T19:38:06.679Z,101279.22
2022-12-19T19:40:35.737Z,101227.28
2022-12-19T19:43:07.021Z,101228.28
2022-12-19T19:45:41.174Z,101265.31
2022-12-19T19:48:12.139Z,101261.00
2022-12-19T19:50:41.919Z,101254.94
2022-12-19T19:53:10.646Z,101255.06
2022-12-19T19:55:40.434Z,101255.03
2022-12-19T19:58:08.780Z,101255.06
2022-12-19T20:00:37.321Z,101245.53
2022-12-19T20:03:09.597Z,101181.25
2022-12-19T20:05:38.380Z,101190.06
2022-12-19T20:08:08.386Z,101248.25
2022-12-19T20:10:36.728Z,101241.41
2022-12-19T20:13:05.099Z,101221.97
2022-12-19T20:15:33.647Z,101239.66
2022-12-19T20:18:02.012Z,101208.97
2022-12-19T20:20:30.299Z,101191.38
2022-12-19T20:22:58.565Z,101225.72
2022-12-19T20:25:28.352Z,101225.66
2022-12-19T20:27:56.741Z,101185.13
2022-12-19T20:30:27.199Z,101222.16
2022-12-19T20:32:55.969Z,101220.38
2022-12-19T20:35:24.293Z,101227.31
2022-12-19T20:37:52.619Z,101207.09
2022-12-19T20:40:21.330Z,101227.31
2022-12-19T20:42:51.038Z,101202.56
2022-12-19T20:45:19.497Z,101175.47
2022-12-19T20:47:49.316Z,101223.06
2022-12-19T20:50:18.055Z,101236.03
2022-12-19T20:52:46.760Z,101232.53
2022-12-19T20:55:16.445Z,101230.66
2022-12-19T20:57:45.010Z,101218.34
2022-12-19T21:00:25.173Z,101214.78
2022-12-19T21:03:26.373Z,101224.34
2022-12-19T21:05:52.845Z,101158.72
2022-12-19T21:08:28.486Z,101134.06
2022-12-19T21:10:57.634Z,101214.38
2022-12-19T21:13:26.199Z,101153.44
2022-12-19T21:15:58.508Z,101200.13
2022-12-19T21:18:28.434Z,101212.63
2022-12-19T21:20:57.925Z,101159.66
2022-12-19T21:23:29.368Z,101207.28
2022-12-19T21:25:59.940Z,101173.75
2022-12-19T21:28:29.293Z,101206.44
2022-12-19T21:31:02.794Z,101209.94
2022-12-19T21:33:31.893Z,101009.84
2022-12-19T21:36:08.090Z,101211.66
2022-12-19T21:38:38.168Z,101206.47
2022-12-19T21:41:09.079Z,101203.66
2022-12-19T21:43:38.034Z,101228.97
2022-12-19T21:46:13.811Z,101187.50
2022-12-19T21:48:44.285Z,101152.97
2022-12-19T21:51:14.752Z,101215.66
2022-12-19T21:53:43.804Z,101219.06
2022-12-19T21:56:24.700Z,101212.00
2022-12-19T21:58:56.854Z,101208.50
2022-12-19T22:01:27.801Z,101201.47
2022-12-19T22:04:01.068Z,101196.13
2022-12-19T22:06:33.034Z,101189.97
2022-12-19T22:09:02.697Z,101185.59
2022-12-19T22:11:31.668Z,101199.59
2022-12-19T22:14:00.893Z,101209.09
2022-12-19T22:16:30.840Z,101169.34
2022-12-19T22:18:59.300Z,101208.22
2022-12-19T22:21:28.368Z,101206.44
2022-12-19T22:23:59.053Z,101209.09
2022-12-19T22:26:29.658Z,101210.19
2022-12-19T22:28:59.559Z,101161.94
2022-12-19T22:31:32.316Z,101200.81
2022-12-19T22:34:03.384Z,101150.63
2022-12-19T22:36:33.683Z,101192.25
2022-12-19T22:39:05.723Z,101151.69
2022-12-19T22:41:35.659Z,101202.03
2022-12-19T22:44:05.182Z,101171.28
2022-12-19T22:46:38.173Z,101194.22
2022-12-19T22:49:09.729Z,101215.47
2022-12-19T22:51:38.999Z,101202.25
2022-12-19T22:54:07.968Z,101214.78
2022-12-19T22:56:37.308Z,101197.38
2022-12-19T22:59:09.194Z,101198.25
2022-12-19T23:01:42.159Z,101206.00
2022-12-19T23:04:15.115Z,101212.00
2022-12-19T23:06:46.300Z,101169.66
2022-12-19T23:09:18.766Z,101205.94
2022-12-19T23:11:51.405Z,101203.31
2022-12-19T23:14:21.799Z,101193.72
2022-12-19T23:16:51.526Z,101203.31
2022-12-19T23:19:20.185Z,101181.16
2022-12-19T23:21:49.006Z,101209.28
2022-12-19T23:24:21.415Z,101185.44
2022-12-19T23:26:52.077Z,101201.94
2022-12-19T23:29:21.311Z,101207.31
2022-12-19T23:31:50.971Z,101206.38
2022-12-19T23:34:19.664Z,101206.28
2022-12-19T23:39:36.749Z,101139.13
2022-12-19T23:42:05.385Z,101155.63
2022-12-19T23:44:35.071Z,101145.84
2022-12-19T23:47:04.903Z,101179.28
2022-12-19T23:49:35.968Z,101195.88
2022-12-19T23:52:04.763Z,101190.56
2022-12-19T23:54:33.164Z,101105.66
2022-12-19T23:57:04.715Z,101192.91
2022-12-19T23:59:33.341Z,101194.59
